No particular awareness of the weather is required.    There are no Weather-warnings


Meteo18 Weather Cam more information Meteo18 Weather Cam


Thunder radar more information blitzortung!


Rain radar more information rain snow radar


Visit our other weather sites:

Template documentation
and downloads

And another site



Weather Underground History page Text

Daily Summary for April 19, 2016 Units:  Metric    English   Both
« Previous Day
Next Day »
Daily Weekly Monthly Yearly Custom
  High: Low: Average:
Temperature: 18.1 °C -0.8 °C 9.3 °C
Dew Point: 7.3 °C -1.6 °C 3.3 °C
Humidity: 97 % 41 % 70 %
Wind Speed: 11.3 km/h 0.0 km/h 1.8 km/h
Wind Gust: 19.3 km/h - -
Wind:- - ENE
Pressure: 1026.3 hPa 1022.6 hPa -
Precipitation: 0.0 mm    
Historical Graphs
 
 
Tabular Data for April 19, 2016
Time Temperature Dew Point Pressure Wind Wind Speed Wind Gust Humidity Rainfall Rate (Hourly)
00:02 2.1 °C 0.2 °C 1025.3 hPa Calm     87 % 0.0 mm
00:07 1.9 °C 0.0 °C 1025.6 hPa Calm     87 % 0.0 mm
00:12 1.9 °C 0.3 °C 1025.6 hPa Calm     89 % 0.0 mm
00:17 1.8 °C 0.3 °C 1025.6 hPa Calm     90 % 0.0 mm
00:22 1.7 °C 0.2 °C 1025.6 hPa Calm     90 % 0.0 mm
00:32 1.8 °C 0.5 °C 1025.6 hPa Calm     91 % 0.0 mm
00:37 1.8 °C 0.3 °C 1025.6 hPa Calm     90 % 0.0 mm
00:42 1.7 °C 0.1 °C 1025.6 hPa Calm     89 % 0.0 mm
00:47 1.7 °C 0.1 °C 1025.6 hPa Calm     89 % 0.0 mm
00:52 1.8 °C 0.2 °C 1025.6 hPa Calm     89 % 0.0 mm
00:57 1.8 °C 0.0 °C 1025.6 hPa Calm     88 % 0.0 mm
01:02 1.7 °C 0.1 °C 1025.6 hPa Calm     89 % 0.0 mm
01:07 1.7 °C 0.1 °C 1025.6 hPa Calm     89 % 0.0 mm
01:12 1.6 °C 0.0 °C 1025.6 hPa Calm     89 % 0.0 mm
01:17 1.5 °C 0.0 °C 1025.6 hPa Calm     90 % 0.0 mm
01:22 1.4 °C -0.1 °C 1025.6 hPa Calm     90 % 0.0 mm
01:32 1.3 °C 0.0 °C 1025.6 hPa Calm     91 % 0.0 mm
01:37 1.3 °C 0.0 °C 1025.6 hPa Calm     91 % 0.0 mm
01:42 1.4 °C 0.1 °C 1026.0 hPa Calm     91 % 0.0 mm
01:47 1.5 °C 0.2 °C 1026.0 hPa Calm     91 % 0.0 mm
01:52 1.6 °C 0.1 °C 1026.0 hPa Calm     90 % 0.0 mm
01:57 1.6 °C 0.1 °C 1026.0 hPa Calm     90 % 0.0 mm
02:02 1.6 °C 0.1 °C 1026.0 hPa Calm     90 % 0.0 mm
02:07 1.5 °C 0.0 °C 1026.0 hPa Calm     90 % 0.0 mm
02:12 1.3 °C -0.2 °C 1026.0 hPa Calm     90 % 0.0 mm
02:17 1.2 °C -0.3 °C 1026.0 hPa Calm     90 % 0.0 mm
02:22 1.0 °C -0.5 °C 1026.0 hPa Calm     90 % 0.0 mm
02:27 0.9 °C -0.4 °C 1026.0 hPa Calm     91 % 0.0 mm
02:32 0.8 °C -0.5 °C 1026.0 hPa Calm     91 % 0.0 mm
02:37 0.6 °C -0.7 °C 1026.0 hPa Calm     91 % 0.0 mm
02:42 0.6 °C -0.5 °C 1026.0 hPa Calm     92 % 0.0 mm
02:47 0.6 °C -0.5 °C 1026.0 hPa Calm     92 % 0.0 mm
02:52 0.5 °C -0.6 °C 1026.0 hPa Calm     92 % 0.0 mm
02:57 0.6 °C -0.4 °C 1026.0 hPa Calm     93 % 0.0 mm
03:02 0.6 °C -0.4 °C 1026.0 hPa Calm     93 % 0.0 mm
03:07 0.6 °C -0.4 °C 1026.0 hPa Calm     93 % 0.0 mm
03:12 0.7 °C -0.3 °C 1026.0 hPa Calm     93 % 0.0 mm
03:17 0.7 °C -0.5 °C 1026.0 hPa Calm     92 % 0.0 mm
03:22 0.7 °C -0.3 °C 1026.0 hPa Calm     93 % 0.0 mm
03:27 0.6 °C -0.5 °C 1026.0 hPa Calm     92 % 0.0 mm
03:37 0.8 °C -0.4 °C 1026.0 hPa Calm     92 % 0.0 mm
03:42 0.7 °C -0.6 °C 1026.0 hPa Calm     91 % 0.0 mm
03:47 0.6 °C -0.5 °C 1026.0 hPa Calm     92 % 0.0 mm
03:52 0.7 °C -0.5 °C 1026.0 hPa Calm     92 % 0.0 mm
04:02 0.6 °C -0.5 °C 1026.0 hPa Calm     92 % 0.0 mm
04:07 0.5 °C -0.8 °C 1026.0 hPa Calm     91 % 0.0 mm
04:12 0.4 °C -0.7 °C 1026.0 hPa Calm     92 % 0.0 mm
04:17 0.5 °C -0.6 °C 1026.0 hPa Calm     92 % 0.0 mm
04:22 0.5 °C -0.6 °C 1026.0 hPa Calm     92 % 0.0 mm
04:27 0.4 °C -0.7 °C 1026.0 hPa Calm     92 % 0.0 mm
04:32 0.2 °C -0.9 °C 1026.0 hPa Calm     92 % 0.0 mm
04:37 0.2 °C -0.9 °C 1026.0 hPa Calm     92 % 0.0 mm
04:42 0.1 °C -1.0 °C 1026.0 hPa Calm     92 % 0.0 mm
04:47 0.0 °C -1.0 °C 1026.0 hPa Calm     93 % 0.0 mm
04:52 0.0 °C -1.0 °C 1026.0 hPa Calm     93 % 0.0 mm
05:02 -0.1 °C -1.1 °C 1026.0 hPa Calm     93 % 0.0 mm
05:17 -0.1 °C -0.9 °C 1026.0 hPa Calm     94 % 0.0 mm
05:22 -0.2 °C -1.2 °C 1026.0 hPa Calm     93 % 0.0 mm
05:27 -0.4 °C -1.4 °C 1026.0 hPa Calm     93 % 0.0 mm
05:32 -0.4 °C -1.2 °C 1026.0 hPa Calm     94 % 0.0 mm
05:42 -0.3 °C -1.1 °C 1026.0 hPa Calm     94 % 0.0 mm
05:47 -0.3 °C -1.1 °C 1026.0 hPa Calm     94 % 0.0 mm
05:52 -0.4 °C -1.2 °C 1026.0 hPa Calm     94 % 0.0 mm
05:57 -0.4 °C -1.2 °C 1026.0 hPa Calm     94 % 0.0 mm
06:02 -0.6 °C -1.4 °C 1026.0 hPa Calm     94 % 0.0 mm
06:07 -0.6 °C -1.4 °C 1026.0 hPa Calm     94 % 0.0 mm
06:12 -0.5 °C -1.2 °C 1026.0 hPa Calm     95 % 0.0 mm
06:17 -0.5 °C -1.2 °C 1026.0 hPa Calm     95 % 0.0 mm
06:22 -0.6 °C -1.3 °C 1026.0 hPa Calm     95 % 0.0 mm
06:32 -0.8 °C -1.6 °C 1026.0 hPa Calm     94 % 0.0 mm
06:37 -0.7 °C -1.4 °C 1026.0 hPa Calm     95 % 0.0 mm
06:47 -0.7 °C -1.4 °C 1026.0 hPa Calm     95 % 0.0 mm
06:52 -0.6 °C -1.3 °C 1026.0 hPa Calm     95 % 0.0 mm
07:02 -0.6 °C -1.3 °C 1026.0 hPa Calm     95 % 0.0 mm
07:07 -0.6 °C -1.3 °C 1026.0 hPa Calm     95 % 0.0 mm
07:12 -0.4 °C -1.1 °C 1026.0 hPa Calm     95 % 0.0 mm
07:17 -0.4 °C -1.1 °C 1026.0 hPa Calm     95 % 0.0 mm
07:22 -0.4 °C -1.1 °C 1026.0 hPa Calm     95 % 0.0 mm
07:27 -0.4 °C -1.1 °C 1026.0 hPa Calm     95 % 0.0 mm
07:32 -0.3 °C -0.9 °C 1026.3 hPa Calm     96 % 0.0 mm
07:37 -0.2 °C -0.8 °C 1026.0 hPa Calm     96 % 0.0 mm
07:42 -0.1 °C -0.7 °C 1026.3 hPa Calm     96 % 0.0 mm
07:47 0.1 °C -0.5 °C 1026.3 hPa Calm     96 % 0.0 mm
07:52 0.2 °C -0.4 °C 1026.3 hPa Calm     96 % 0.0 mm
07:57 0.4 °C -0.2 °C 1026.3 hPa Calm     96 % 0.0 mm
08:02 0.5 °C -0.1 °C 1026.3 hPa Calm     96 % 0.0 mm
08:12 0.9 °C 0.3 °C 1026.3 hPa Calm     96 % 0.0 mm
08:17 1.2 °C 0.6 °C 1026.3 hPa Calm     96 % 0.0 mm
08:22 1.4 °C 0.8 °C 1026.3 hPa Calm     96 % 0.0 mm
08:27 1.7 °C 1.1 °C 1026.3 hPa Calm     96 % 0.0 mm
08:32 1.9 °C 1.5 °C 1026.3 hPa Calm     97 % 0.0 mm
08:37 2.2 °C 1.8 °C 1026.0 hPa Calm     97 % 0.0 mm
08:42 2.7 °C 2.3 °C 1026.0 hPa Calm     97 % 0.0 mm
08:47 3.1 °C 2.7 °C 1026.0 hPa Calm     97 % 0.0 mm
08:52 3.3 °C 2.7 °C 1026.0 hPa Calm     96 % 0.0 mm
09:02 3.6 °C 2.9 °C 1026.3 hPa Calm     95 % 0.0 mm
09:12 5.1 °C 4.5 °C 1026.3 hPa Calm     96 % 0.0 mm
09:22 6.2 °C 5.2 °C 1026.0 hPa Calm     93 % 0.0 mm
09:32 7.1 °C 4.9 °C 1026.0 hPa Calm     86 % 0.0 mm
09:37 7.7 °C 4.8 °C 1026.0 hPa Calm     82 % 0.0 mm
09:42 8.5 °C 4.9 °C 1026.0 hPa Calm     78 % 0.0 mm
09:47 9.4 °C 5.4 °C 1026.0 hPa Calm     76 % 0.0 mm
09:52 9.9 °C 4.5 °C 1026.0 hPa Calm     69 % 0.0 mm
09:57 10.4 °C 5.0 °C 1026.0 hPa Calm   1.6 km/h 69 % 0.0 mm
10:02 10.9 °C 4.6 °C 1026.0 hPa SE 1.6 km/h 1.6 km/h 65 % 0.0 mm
10:17 11.9 °C 5.3 °C 1026.0 hPa Calm   3.2 km/h 64 % 0.0 mm
10:22 12.2 °C 4.4 °C 1026.0 hPa Calm   3.2 km/h 59 % 0.0 mm
10:27 12.2 °C 4.2 °C 1026.0 hPa WSW 1.6 km/h 3.2 km/h 58 % 0.0 mm
10:32 12.4 °C 3.3 °C 1026.0 hPa NW 1.6 km/h 4.8 km/h 54 % 0.0 mm
10:42 12.7 °C 4.1 °C 1026.0 hPa Calm   4.8 km/h 56 % 0.0 mm
10:47 13.2 °C 4.1 °C 1026.0 hPa Calm   4.8 km/h 54 % 0.0 mm
10:52 13.2 °C 3.3 °C 1026.0 hPa WSW 1.6 km/h 6.4 km/h 51 % 0.0 mm
10:57 13.5 °C 5.1 °C 1026.0 hPa Calm   6.4 km/h 57 % 0.0 mm
11:02 13.7 °C 3.2 °C 1026.0 hPa Calm   6.4 km/h 49 % 0.0 mm
11:07 13.9 °C 4.7 °C 1026.0 hPa Calm   4.8 km/h 54 % 0.0 mm
11:12 14.2 °C 4.5 °C 1026.0 hPa NNE 1.6 km/h 4.8 km/h 52 % 0.0 mm
11:17 14.2 °C 3.6 °C 1026.0 hPa Calm   4.8 km/h 49 % 0.0 mm
11:22 14.4 °C 2.9 °C 1026.0 hPa NE 3.2 km/h 4.8 km/h 46 % 0.0 mm
11:27 14.0 °C 3.2 °C 1026.0 hPa Calm   6.4 km/h 48 % 0.0 mm
11:32 14.0 °C 2.9 °C 1026.3 hPa Calm   6.4 km/h 47 % 0.0 mm
11:37 14.6 °C 2.2 °C 1026.0 hPa ENE 1.6 km/h 6.4 km/h 43 % 0.0 mm
11:47 14.3 °C 3.1 °C 1026.0 hPa North 1.6 km/h 4.8 km/h 47 % 0.0 mm
11:52 14.4 °C 3.5 °C 1026.0 hPa East 3.2 km/h 6.4 km/h 48 % 0.0 mm
11:57 14.5 °C 5.3 °C 1026.0 hPa SSW 1.6 km/h 8.0 km/h 54 % 0.0 mm
12:02 14.8 °C 3.6 °C 1026.0 hPa North 1.6 km/h 8.0 km/h 47 % 0.0 mm
12:07 14.9 °C 3.1 °C 1026.0 hPa NE 1.6 km/h 8.0 km/h 45 % 0.0 mm
12:17 15.3 °C 4.9 °C 1025.6 hPa North 3.2 km/h 6.4 km/h 50 % 0.0 mm
12:22 15.5 °C 4.5 °C 1026.0 hPa ESE 1.6 km/h 8.0 km/h 48 % 0.0 mm
12:27 15.2 °C 5.4 °C 1025.6 hPa Calm   8.0 km/h 52 % 0.0 mm
12:37 15.8 °C 4.8 °C 1025.6 hPa SW 1.6 km/h 8.0 km/h 48 % 0.0 mm
12:42 16.0 °C 5.9 °C 1025.6 hPa North 1.6 km/h 8.0 km/h 51 % 0.0 mm
12:47 15.8 °C 5.1 °C 1025.6 hPa NE 4.8 km/h 14.5 km/h 49 % 0.0 mm
12:52 15.5 °C 5.4 °C 1025.6 hPa Calm   14.5 km/h 51 % 0.0 mm
12:57 15.9 °C 5.5 °C 1025.6 hPa NNE 3.2 km/h 14.5 km/h 50 % 0.0 mm
13:02 16.1 °C 5.7 °C 1025.3 hPa Calm   11.3 km/h 50 % 0.0 mm
13:07 16.2 °C 5.5 °C 1025.3 hPa Calm   9.7 km/h 49 % 0.0 mm
13:12 16.5 °C 5.7 °C 1025.3 hPa Calm   9.7 km/h 49 % 0.0 mm
13:17 16.7 °C 5.3 °C 1025.3 hPa East 1.6 km/h 9.7 km/h 47 % 0.0 mm
13:22 16.8 °C 6.3 °C 1025.3 hPa West 1.6 km/h 6.4 km/h 50 % 0.0 mm
13:27 16.9 °C 5.5 °C 1024.9 hPa SSW 1.6 km/h 6.4 km/h 47 % 0.0 mm
13:32 17.1 °C 5.7 °C 1024.9 hPa Calm   9.7 km/h 47 % 0.0 mm
13:37 17.0 °C 4.3 °C 1024.9 hPa ENE 4.8 km/h 9.7 km/h 43 % 0.0 mm
13:42 16.7 °C 5.3 °C 1024.9 hPa NE 4.8 km/h 11.3 km/h 47 % 0.0 mm
13:47 16.8 °C 6.0 °C 1024.9 hPa NNE 3.2 km/h 11.3 km/h 49 % 0.0 mm
13:52 16.7 °C 5.3 °C 1024.6 hPa Calm   11.3 km/h 47 % 0.0 mm
13:57 17.0 °C 5.9 °C 1024.6 hPa Calm   9.7 km/h 48 % 0.0 mm
14:02 17.1 °C 5.7 °C 1024.6 hPa Calm   6.4 km/h 47 % 0.0 mm
14:12 17.4 °C 6.9 °C 1024.3 hPa Calm   9.7 km/h 50 % 0.0 mm
14:17 17.3 °C 6.2 °C 1024.3 hPa Calm   9.7 km/h 48 % 0.0 mm
14:22 17.6 °C 5.2 °C 1024.3 hPa SSE 3.2 km/h 9.7 km/h 44 % 0.0 mm
14:27 17.7 °C 4.3 °C 1024.3 hPa NNE 3.2 km/h 8.0 km/h 41 % 0.0 mm
14:32 17.7 °C 5.6 °C 1024.3 hPa WSW 1.6 km/h 6.4 km/h 45 % 0.0 mm
14:37 17.4 °C 5.3 °C 1024.3 hPa Calm   9.7 km/h 45 % 0.0 mm
14:42 17.5 °C 4.8 °C 1024.3 hPa Calm   9.7 km/h 43 % 0.0 mm
14:47 17.6 °C 5.2 °C 1024.3 hPa Calm   9.7 km/h 44 % 0.0 mm
14:52 17.3 °C 4.9 °C 1024.3 hPa NE 6.4 km/h 12.9 km/h 44 % 0.0 mm
14:57 17.4 °C 4.4 °C 1024.3 hPa Calm   12.9 km/h 42 % 0.0 mm
15:02 17.7 °C 6.2 °C 1024.3 hPa North 3.2 km/h 12.9 km/h 47 % 0.0 mm
15:07 17.2 °C 5.5 °C 1023.9 hPa ENE 4.8 km/h 11.3 km/h 46 % 0.0 mm
15:12 17.6 °C 5.8 °C 1023.9 hPa Calm   11.3 km/h 46 % 0.0 mm
15:17 17.8 °C 6.6 °C 1023.9 hPa ESE 1.6 km/h 11.3 km/h 48 % 0.0 mm
15:22 17.9 °C 5.8 °C 1023.9 hPa Calm   9.7 km/h 45 % 0.0 mm
15:27 18.1 °C 6.3 °C 1023.9 hPa North 4.8 km/h 9.7 km/h 46 % 0.0 mm
15:32 17.6 °C 5.2 °C 1023.9 hPa NE 3.2 km/h 11.3 km/h 44 % 0.0 mm
15:52 17.3 °C 7.3 °C 1023.9 hPa NE 8.0 km/h -1607.4 km/h 52 % 0 mm
15:57 17.5 °C 5.7 °C 1023.6 hPa Calm   12.9 km/h 46 % 0.0 mm
16:02 17.7 °C 6.2 °C 1023.6 hPa NE 3.2 km/h 12.9 km/h 47 % 0.0 mm
16:12 17.6 °C 6.5 °C 1023.6 hPa Calm   12.9 km/h 48 % 0.0 mm
16:17 17.7 °C 6.2 °C 1023.6 hPa Calm   12.9 km/h 47 % 0.0 mm
16:22 17.9 °C 6.1 °C 1023.6 hPa NE 3.2 km/h 12.9 km/h 46 % 0.0 mm
16:27 17.8 °C 5.4 °C 1023.2 hPa East 1.6 km/h 12.9 km/h 44 % 0.0 mm
16:32 17.8 °C 6.3 °C 1023.2 hPa NE 3.2 km/h 12.9 km/h 47 % 0.0 mm
16:42 17.8 °C 5.7 °C 1023.2 hPa Calm   9.7 km/h 45 % 0.0 mm
16:47 17.9 °C 5.5 °C 1023.2 hPa Calm   11.3 km/h 44 % 0.0 mm
16:52 17.9 °C 6.4 °C 1023.2 hPa NE 4.8 km/h 11.3 km/h 47 % 0.0 mm
16:57 18.0 °C 5.2 °C 1023.2 hPa NNE 8.0 km/h 11.3 km/h 43 % 0.0 mm
17:02 17.7 °C 6.8 °C 1023.2 hPa NE 3.2 km/h 12.9 km/h 49 % 0.0 mm
17:07 17.8 °C 6.3 °C 1023.2 hPa NNE 4.8 km/h 12.9 km/h 47 % 0.0 mm
17:12 17.8 °C 6.3 °C 1023.2 hPa ENE 6.4 km/h 12.9 km/h 47 % 0.0 mm
17:17 17.6 °C 5.5 °C 1023.2 hPa ESE 1.6 km/h 12.9 km/h 45 % 0.0 mm
17:22 17.5 °C 6.1 °C 1022.9 hPa NE 4.8 km/h 19.3 km/h 47 % 0.0 mm
17:27 17.6 °C 6.5 °C 1022.9 hPa NE 6.4 km/h 19.3 km/h 48 % 0.0 mm
17:32 17.7 °C 6.2 °C 1022.9 hPa Calm   12.9 km/h 47 % 0.0 mm
17:37 17.6 °C 5.5 °C 1022.9 hPa NNE 4.8 km/h 12.9 km/h 45 % 0.0 mm
17:42 17.6 °C 7.1 °C 1022.9 hPa NE 9.7 km/h 12.9 km/h 50 % 0.0 mm
17:47 17.4 °C 6.3 °C 1022.9 hPa North 6.4 km/h 14.5 km/h 48 % 0.0 mm
17:52 17.5 °C 6.7 °C 1022.6 hPa NE 11.3 km/h 14.5 km/h 49 % 0.0 mm
17:57 17.4 °C 6.6 °C 1022.6 hPa ENE 6.4 km/h 16.1 km/h 49 % 0.0 mm
18:02 17.4 °C 6.6 °C 1022.6 hPa Calm   16.1 km/h 49 % 0.0 mm
18:07 17.4 °C 6.9 °C 1022.6 hPa SSE 3.2 km/h 16.1 km/h 50 % 0.0 mm
18:12 17.3 °C 6.5 °C 1022.6 hPa NNE 3.2 km/h 14.5 km/h 49 % 0.0 mm
18:17 17.4 °C 6.6 °C 1022.6 hPa North 3.2 km/h 14.5 km/h 49 % 0.0 mm
18:22 17.4 °C 6.9 °C 1022.6 hPa NNE 6.4 km/h 11.3 km/h 50 % 0.0 mm
18:27 17.3 °C 6.8 °C 1022.6 hPa NE 3.2 km/h 11.3 km/h 50 % 0.0 mm
18:32 17.1 °C 6.3 °C 1022.9 hPa NE 4.8 km/h 9.7 km/h 49 % 0.0 mm
18:37 16.8 °C 5.4 °C 1022.9 hPa North 6.4 km/h 9.7 km/h 47 % 0.0 mm
18:42 16.6 °C 6.1 °C 1022.9 hPa NE 3.2 km/h 11.3 km/h 50 % 0.0 mm
18:47 16.3 °C 6.4 °C 1022.9 hPa NE 8.0 km/h 12.9 km/h 52 % 0.0 mm
18:52 16.2 °C 5.8 °C 1022.9 hPa NE 4.8 km/h 14.5 km/h 50 % 0.0 mm
18:57 16.0 °C 6.1 °C 1022.9 hPa North 4.8 km/h 14.5 km/h 52 % 0.0 mm
19:02 15.8 °C 6.2 °C 1022.6 hPa NE 8.0 km/h 14.5 km/h 53 % 0.0 mm
19:07 15.7 °C 6.4 °C 1022.6 hPa NE 3.2 km/h 9.7 km/h 54 % 0.0 mm
19:12 15.5 °C 6.0 °C 1022.6 hPa NNE 6.4 km/h 9.7 km/h 53 % 0.0 mm
19:17 15.3 °C 5.8 °C 1022.6 hPa NE 4.8 km/h 11.3 km/h 53 % 0.0 mm
19:22 15.3 °C 5.8 °C 1022.6 hPa ENE 4.8 km/h 11.3 km/h 53 % 0.0 mm
19:27 15.1 °C 5.6 °C 1022.9 hPa NNE 4.8 km/h 11.3 km/h 53 % 0.0 mm
19:32 14.9 °C 5.4 °C 1022.9 hPa ESE 6.4 km/h 9.7 km/h 53 % 0.0 mm
19:42 14.6 °C 5.4 °C 1022.6 hPa NE 6.4 km/h 14.5 km/h 54 % 0.0 mm
19:47 14.5 °C 5.6 °C 1022.6 hPa NE 3.2 km/h 14.5 km/h 55 % 0.0 mm
19:52 14.4 °C 5.2 °C 1022.6 hPa NNE 3.2 km/h 12.9 km/h 54 % 0.0 mm
19:57 14.3 °C 5.1 °C 1022.6 hPa ENE 6.4 km/h 9.7 km/h 54 % 0.0 mm
20:02 14.3 °C 5.4 °C 1022.6 hPa NNE 4.8 km/h 11.3 km/h 55 % 0.0 mm
20:07 14.1 °C 5.2 °C 1022.6 hPa SE 3.2 km/h 11.3 km/h 55 % 0.0 mm
20:12 13.9 °C 5.3 °C 1022.6 hPa NE 1.6 km/h 12.9 km/h 56 % 0.0 mm
20:17 13.8 °C 5.4 °C 1022.6 hPa NE 3.2 km/h 12.9 km/h 57 % 0.0 mm
20:22 13.5 °C 5.4 °C 1022.6 hPa NNE 3.2 km/h 12.9 km/h 58 % 0.0 mm
20:27 13.4 °C 5.1 °C 1022.6 hPa NE 1.6 km/h 12.9 km/h 57 % 0.0 mm
20:32 13.2 °C 5.1 °C 1022.6 hPa East 1.6 km/h 8.0 km/h 58 % 0.0 mm
20:42 12.7 °C 5.4 °C 1022.9 hPa Calm   8.0 km/h 61 % 0.0 mm
20:47 12.5 °C 5.4 °C 1022.6 hPa NNE 3.2 km/h 8.0 km/h 62 % 0.0 mm
20:52 12.2 °C 5.4 °C 1022.6 hPa NNE 1.6 km/h 6.4 km/h 63 % 0.0 mm
20:57 12.1 °C 5.5 °C 1022.9 hPa NE 1.6 km/h 6.4 km/h 64 % 0.0 mm
21:02 12.0 °C 5.4 °C 1022.9 hPa NE 3.2 km/h 8.0 km/h 64 % 0.0 mm
21:07 12.1 °C 5.5 °C 1022.9 hPa NE 3.2 km/h 8.0 km/h 64 % 0.0 mm
21:12 12.1 °C 5.7 °C 1022.9 hPa NE 1.6 km/h 9.7 km/h 65 % 0.0 mm
21:17 12.0 °C 5.6 °C 1022.9 hPa NE 3.2 km/h 9.7 km/h 65 % 0.0 mm
21:22 11.9 °C 5.5 °C 1023.2 hPa North 6.4 km/h 9.7 km/h 65 % 0.0 mm
21:27 11.8 °C 5.7 °C 1023.2 hPa East 3.2 km/h 11.3 km/h 66 % 0.0 mm
21:32 11.8 °C 5.7 °C 1023.2 hPa NE 1.6 km/h 14.5 km/h 66 % 0.0 mm
21:37 11.7 °C 5.8 °C 1023.2 hPa NNE 6.4 km/h 14.5 km/h 67 % 0.0 mm
21:42 11.6 °C 5.7 °C 1023.2 hPa NNE 6.4 km/h 14.5 km/h 67 % 0.0 mm
21:52 11.4 °C 5.7 °C 1023.2 hPa NE 6.4 km/h 12.9 km/h 68 % 0.0 mm
21:57 11.3 °C 5.6 °C 1023.2 hPa NNE 1.6 km/h 14.5 km/h 68 % 0.0 mm
22:02 11.2 °C 5.5 °C 1023.6 hPa NNE 3.2 km/h 14.5 km/h 68 % 0.0 mm
22:07 11.1 °C 5.6 °C 1023.2 hPa NNE 3.2 km/h 14.5 km/h 69 % 0.0 mm
22:12 11.1 °C 5.8 °C 1023.6 hPa NE 3.2 km/h 11.3 km/h 70 % 0.0 mm
22:17 10.9 °C 5.6 °C 1023.6 hPa NNE 6.4 km/h 12.9 km/h 70 % 0.0 mm
22:22 10.9 °C 5.8 °C 1023.6 hPa NE 8.0 km/h 12.9 km/h 71 % 0.0 mm
22:27 10.8 °C 5.8 °C 1023.6 hPa NE 4.8 km/h 17.7 km/h 71 % 0.0 mm
22:32 10.7 °C 5.9 °C 1023.6 hPa ENE 3.2 km/h 17.7 km/h 72 % 0.0 mm
22:37 10.6 °C 5.8 °C 1023.9 hPa NE 4.8 km/h 17.7 km/h 72 % 0.0 mm
22:42 10.4 °C 5.8 °C 1023.6 hPa NE 6.4 km/h 11.3 km/h 73 % 0.0 mm
22:47 10.4 °C 5.8 °C 1023.6 hPa NE 9.7 km/h 14.5 km/h 73 % 0.0 mm
22:52 10.3 °C 5.9 °C 1023.6 hPa NNE 8.0 km/h 14.5 km/h 74 % 0.0 mm
22:57 10.2 °C 5.8 °C 1023.6 hPa North 6.4 km/h 14.5 km/h 74 % 0.0 mm
23:02 10.1 °C 5.9 °C 1023.2 hPa NNW 4.8 km/h 12.9 km/h 75 % 0.0 mm
23:07 10.0 °C 5.8 °C 1023.6 hPa NNE 6.4 km/h 12.9 km/h 75 % 0.0 mm
23:12 9.9 °C 5.7 °C 1023.6 hPa NE 3.2 km/h 12.9 km/h 75 % 0.0 mm
23:17 9.8 °C 5.6 °C 1023.2 hPa Calm   12.9 km/h 75 % 0.0 mm
23:22 9.8 °C 5.8 °C 1023.2 hPa Calm   12.9 km/h 76 % 0.0 mm
23:27 9.7 °C 5.7 °C 1023.2 hPa NE 4.8 km/h 11.3 km/h 76 % 0.0 mm
23:32 9.5 °C 5.5 °C 1023.2 hPa NE 4.8 km/h 11.3 km/h 76 % 0.0 mm
23:37 9.4 °C 5.6 °C 1023.2 hPa ENE 1.6 km/h 11.3 km/h 77 % 0.0 mm
23:42 9.3 °C 5.5 °C 1023.2 hPa Calm   11.3 km/h 77 % 0.0 mm
23:47 9.2 °C 5.4 °C 1023.2 hPa NNE 4.8 km/h 11.3 km/h 77 % 0.0 mm
23:52 9.1 °C 5.5 °C 1023.2 hPa NE 1.6 km/h 11.3 km/h 78 % 0.0 mm
23:57 8.9 °C 5.3 °C 1023.2 hPa NNE 1.6 km/h 9.7 km/h 78 % 0.0 mm
Meteo18
Compliments of Weather Underground - 4 mb

Script developed by  Jim McMurry - jmcmurry@mwt.net Adapted for the template by  Wim van der Kuil - Leuven-Template.eu

You find our weather info also at:

European Weather Network

Weather Underground

Equipment we use:

Weather-station
Davis Vue

Weather-program
Meteohub

Weather-server
Raspberry PI 2 B+

Provider
1 and 1

Davis Vue

Meteohub

Raspberry PI 2 B+

1 and 1